createdAt,value
2018-05-14T00:00:44.358Z,0.00
2018-05-14T00:01:44.359Z,0.00
2018-05-14T00:02:44.357Z,0.00
2018-05-14T00:03:44.404Z,0.00
2018-05-14T00:04:44.350Z,0.00
2018-05-14T00:05:44.342Z,0.00
2018-05-14T00:06:44.339Z,0.00
2018-05-14T00:07:44.336Z,0.00
2018-05-14T00:08:44.333Z,0.00
2018-05-14T00:09:44.336Z,0.00
2018-05-14T00:10:44.331Z,0.00
2018-05-14T00:11:44.329Z,0.00
2018-05-14T00:12:44.363Z,0.00
2018-05-14T00:13:44.318Z,0.00
2018-05-14T00:14:44.313Z,0.00
2018-05-14T00:15:44.316Z,0.00
2018-05-14T00:16:44.315Z,0.00
2018-05-14T00:17:44.305Z,0.00
2018-05-14T00:18:44.305Z,0.00
2018-05-14T00:19:44.298Z,0.00
2018-05-14T00:20:44.296Z,0.00
2018-05-14T00:21:44.298Z,0.00
2018-05-14T00:22:44.295Z,0.00
2018-05-14T00:23:44.291Z,0.00
2018-05-14T00:24:44.288Z,0.00
2018-05-14T00:25:44.285Z,0.00
2018-05-14T00:26:44.278Z,0.00
2018-05-14T00:27:44.275Z,0.00
2018-05-14T00:28:44.272Z,0.00
2018-05-14T00:29:44.276Z,0.00
2018-05-14T00:30:44.271Z,0.00
2018-05-14T00:31:44.263Z,0.00
2018-05-14T00:32:44.260Z,0.00
2018-05-14T00:33:44.262Z,0.00
2018-05-14T00:34:44.259Z,0.00
2018-05-14T00:35:44.256Z,0.00
2018-05-14T00:36:44.251Z,0.00
2018-05-14T00:37:44.245Z,0.00
2018-05-14T00:38:44.241Z,0.00
2018-05-14T00:39:44.239Z,0.00
2018-05-14T00:40:44.236Z,0.00
2018-05-14T00:41:44.237Z,0.00
2018-05-14T00:42:44.233Z,0.00
2018-05-14T00:43:44.233Z,0.00
2018-05-14T00:44:44.229Z,0.00
2018-05-14T00:45:44.222Z,0.00
2018-05-14T00:46:44.218Z,0.00
2018-05-14T00:47:44.219Z,0.00
2018-05-14T00:48:44.216Z,0.00
2018-05-14T00:49:44.211Z,0.00
2018-05-14T00:50:44.206Z,0.00
2018-05-14T00:51:44.207Z,0.00
2018-05-14T00:52:44.200Z,0.00
2018-05-14T00:53:44.202Z,0.00
2018-05-14T00:54:44.198Z,0.00
2018-05-14T00:55:44.197Z,0.00
2018-05-14T00:56:44.192Z,0.00
2018-05-14T00:57:44.187Z,0.00
2018-05-14T00:58:44.186Z,0.00
2018-05-14T00:59:44.181Z,0.00
2018-05-14T01:00:44.176Z,0.00
2018-05-14T01:01:44.178Z,0.00
2018-05-14T01:02:44.177Z,0.00
2018-05-14T01:03:44.167Z,0.00
2018-05-14T01:04:44.164Z,0.00
2018-05-14T01:05:44.166Z,0.00
2018-05-14T01:06:44.163Z,0.00
2018-05-14T01:07:44.160Z,0.00
2018-05-14T01:08:44.157Z,0.00
2018-05-14T01:09:44.150Z,0.00
2018-05-14T01:10:44.146Z,0.00
2018-05-14T01:11:44.143Z,0.00
2018-05-14T01:12:44.141Z,0.00
2018-05-14T01:13:44.142Z,0.00
2018-05-14T01:14:44.139Z,0.00
2018-05-14T01:15:44.141Z,0.00
2018-05-14T01:16:44.135Z,0.00
2018-05-14T01:17:44.131Z,0.00
2018-05-14T01:18:44.122Z,0.00
2018-05-14T01:19:44.127Z,0.00
2018-05-14T01:20:44.123Z,0.00
2018-05-14T01:21:44.115Z,0.00
2018-05-14T01:22:44.111Z,0.00
2018-05-14T01:23:44.108Z,0.00
2018-05-14T01:24:44.105Z,0.00
2018-05-14T01:25:44.110Z,0.00
2018-05-14T01:26:44.105Z,0.00
2018-05-14T01:27:44.103Z,0.00
2018-05-14T01:28:44.098Z,0.00
2018-05-14T01:29:44.090Z,0.00
2018-05-14T01:30:44.086Z,0.00
2018-05-14T01:31:44.083Z,0.00
2018-05-14T01:32:44.081Z,0.00
2018-05-14T01:33:44.088Z,0.00
2018-05-14T01:34:44.079Z,0.00
2018-05-14T01:35:44.072Z,0.00
2018-05-14T01:36:44.069Z,0.00
2018-05-14T01:37:44.071Z,0.00
2018-05-14T01:38:44.067Z,0.00
2018-05-14T01:39:44.064Z,0.00
2018-05-14T01:40:44.062Z,0.00
2018-05-14T01:41:44.055Z,0.00
2018-05-14T01:42:44.051Z,0.00
2018-05-14T01:43:44.048Z,0.00
2018-05-14T01:44:44.045Z,0.00
2018-05-14T01:45:44.047Z,0.00
2018-05-14T01:46:44.044Z,0.00
2018-05-14T01:47:44.040Z,0.00
2018-05-14T01:48:44.037Z,0.00
2018-05-14T01:49:44.029Z,0.00
2018-05-14T01:50:44.026Z,0.00
2018-05-14T01:51:44.027Z,0.00
2018-05-14T01:52:44.025Z,0.00
2018-05-14T01:53:44.022Z,0.00
2018-05-14T01:54:44.013Z,0.00
2018-05-14T01:55:44.012Z,0.00
2018-05-14T01:56:44.008Z,0.00
2018-05-14T01:57:44.011Z,0.00
2018-05-14T01:58:44.006Z,0.00
2018-05-14T01:59:44.003Z,0.00
2018-05-14T02:00:44.001Z,0.00
2018-05-14T02:01:43.992Z,0.00
2018-05-14T02:02:43.989Z,0.00
2018-05-14T02:03:44.000Z,0.00
2018-05-14T02:04:43.983Z,0.00
2018-05-14T02:05:43.986Z,0.00
2018-05-14T02:06:44.042Z,0.00
2018-05-14T02:07:43.975Z,0.00
2018-05-14T02:08:43.972Z,0.00
2018-05-14T02:09:43.972Z,0.00
2018-05-14T02:10:43.968Z,0.00
2018-05-14T02:11:43.966Z,0.00
2018-05-14T02:12:43.964Z,0.00
2018-05-14T02:13:43.956Z,0.00
2018-05-14T02:14:43.953Z,0.00
2018-05-14T02:15:43.950Z,0.00
2018-05-14T02:16:43.946Z,0.00
2018-05-14T02:17:43.949Z,0.00
2018-05-14T02:18:43.949Z,0.00
2018-05-14T02:19:43.941Z,0.00
2018-05-14T02:20:43.939Z,0.00
2018-05-14T02:21:43.933Z,0.00
2018-05-14T02:22:43.926Z,0.00
2018-05-14T02:23:43.928Z,0.00
2018-05-14T02:24:43.926Z,0.00
2018-05-14T02:25:43.920Z,0.00
2018-05-14T02:26:43.914Z,0.00
2018-05-14T02:27:43.912Z,0.00
2018-05-14T02:28:43.913Z,0.00
2018-05-14T02:29:43.911Z,0.00
2018-05-14T02:30:43.909Z,0.00
2018-05-14T02:31:43.904Z,0.00
2018-05-14T02:32:43.901Z,0.00
2018-05-14T02:33:43.893Z,0.00
2018-05-14T02:34:43.955Z,0.00
2018-05-14T02:35:43.890Z,0.00
2018-05-14T02:36:43.883Z,0.00
2018-05-14T02:37:43.887Z,0.00
2018-05-14T02:38:43.882Z,0.00
2018-05-14T02:39:43.875Z,0.00
2018-05-14T02:40:43.873Z,0.00
2018-05-14T02:41:43.881Z,0.00
2018-05-14T02:42:43.870Z,0.00
2018-05-14T02:43:43.867Z,0.00
2018-05-14T02:44:43.867Z,0.00
2018-05-14T02:45:43.856Z,0.00
2018-05-14T02:46:43.853Z,0.00
2018-05-14T02:47:43.851Z,0.00
2018-05-14T02:48:43.847Z,0.00
2018-05-14T02:49:43.849Z,0.00
2018-05-14T02:50:43.844Z,0.00
2018-05-14T02:51:43.844Z,0.00
2018-05-14T02:52:43.844Z,0.00
2018-05-14T02:53:43.832Z,0.00
2018-05-14T02:54:43.828Z,0.00
2018-05-14T02:55:43.831Z,0.00
2018-05-14T02:56:43.828Z,0.00
2018-05-14T02:57:43.821Z,0.00
2018-05-14T02:58:43.816Z,0.00
2018-05-14T02:59:43.814Z,0.00
2018-05-14T03:00:43.810Z,0.00
2018-05-14T03:01:43.811Z,0.00
2018-05-14T03:02:43.809Z,0.00
2018-05-14T03:03:43.805Z,0.00
2018-05-14T03:04:43.803Z,0.00
2018-05-14T03:05:43.800Z,0.00
2018-05-14T03:06:43.793Z,0.00
2018-05-14T03:07:43.789Z,0.00
2018-05-14T03:08:43.787Z,0.00
2018-05-14T03:09:43.790Z,0.00
2018-05-14T03:10:43.785Z,0.00
2018-05-14T03:11:43.778Z,0.00
2018-05-14T03:12:43.774Z,0.00
2018-05-14T03:13:43.777Z,0.00
2018-05-14T03:14:43.779Z,0.00
2018-05-14T03:15:43.769Z,0.00
2018-05-14T03:16:43.769Z,0.00
2018-05-14T03:17:43.760Z,0.00
2018-05-14T03:18:43.756Z,0.00
2018-05-14T03:19:43.753Z,0.00
2018-05-14T03:20:43.750Z,0.00
2018-05-14T03:21:43.752Z,0.00
2018-05-14T03:22:43.748Z,0.00
2018-05-14T03:23:43.747Z,0.00
2018-05-14T03:24:43.744Z,0.00
2018-05-14T03:25:43.736Z,0.00
2018-05-14T03:26:43.732Z,0.00
2018-05-14T03:27:43.735Z,0.00
2018-05-14T03:28:43.732Z,0.00
2018-05-14T03:29:43.724Z,0.00
2018-05-14T03:30:43.721Z,0.00
2018-05-14T03:31:43.725Z,0.00
2018-05-14T03:32:43.714Z,0.00
2018-05-14T03:33:43.715Z,0.00
2018-05-14T03:34:43.712Z,0.00
2018-05-14T03:35:43.710Z,0.00
2018-05-14T03:36:43.708Z,0.00
2018-05-14T03:37:43.700Z,0.00
2018-05-14T03:38:43.697Z,0.00
2018-05-14T03:39:43.693Z,0.00
2018-05-14T03:40:43.690Z,0.00
2018-05-14T03:41:43.693Z,0.00
2018-05-14T03:42:43.691Z,0.00
2018-05-14T03:43:43.681Z,0.00
2018-05-14T03:44:43.678Z,0.00
2018-05-14T03:45:43.680Z,0.00
2018-05-14T03:46:43.729Z,0.00
2018-05-14T03:47:43.674Z,0.00
2018-05-14T03:48:43.671Z,0.00
2018-05-14T03:49:43.664Z,0.00
2018-05-14T03:50:43.659Z,0.00
2018-05-14T03:51:43.656Z,0.00
2018-05-14T03:52:43.653Z,0.00
2018-05-14T03:53:43.657Z,0.00
2018-05-14T03:54:43.652Z,0.00
2018-05-14T03:55:43.648Z,0.00
2018-05-14T03:56:43.646Z,0.00
2018-05-14T03:57:43.639Z,5.63
2018-05-14T03:58:43.639Z,5.63
2018-05-14T03:59:43.637Z,5.63
2018-05-14T04:00:43.634Z,5.63
2018-05-14T04:01:43.627Z,5.63
2018-05-14T04:02:43.623Z,5.63
2018-05-14T04:03:43.620Z,5.63
2018-05-14T04:04:43.619Z,5.63
2018-05-14T04:05:43.619Z,5.63
2018-05-14T04:06:43.616Z,5.63
2018-05-14T04:07:43.614Z,5.63
2018-05-14T04:08:43.611Z,5.63
2018-05-14T04:09:43.602Z,5.63
2018-05-14T04:10:43.609Z,5.63
2018-05-14T04:11:43.595Z,5.63
2018-05-14T04:12:43.592Z,5.63
2018-05-14T04:13:43.599Z,11.25
2018-05-14T04:14:43.590Z,11.25
2018-05-14T04:15:43.583Z,11.25
2018-05-14T04:16:43.580Z,11.25
2018-05-14T04:17:43.582Z,11.25
2018-05-14T04:18:43.579Z,11.25
2018-05-14T04:19:43.577Z,16.88
2018-05-14T04:20:43.572Z,16.88
2018-05-14T04:21:43.565Z,11.25
2018-05-14T04:22:43.561Z,16.88
2018-05-14T04:23:43.558Z,16.88
2018-05-14T04:24:43.557Z,16.88
2018-05-14T04:25:43.558Z,16.88
2018-05-14T04:26:43.554Z,16.88
2018-05-14T04:27:43.552Z,22.50
2018-05-14T04:28:43.547Z,22.50
2018-05-14T04:29:43.539Z,16.88
2018-05-14T04:30:43.536Z,22.50
2018-05-14T04:31:43.537Z,22.50
2018-05-14T04:32:43.535Z,22.50
2018-05-14T04:33:43.526Z,16.88
2018-05-14T04:34:43.524Z,16.88
2018-05-14T04:35:43.521Z,22.50
2018-05-14T04:36:43.518Z,16.88
2018-05-14T04:37:43.520Z,22.50
2018-05-14T04:38:43.523Z,22.50
2018-05-14T04:39:43.509Z,28.13
2018-05-14T04:40:43.506Z,22.50
2018-05-14T04:41:43.507Z,28.13
2018-05-14T04:42:43.504Z,33.75
2018-05-14T04:43:43.500Z,33.75
2018-05-14T04:44:43.497Z,33.75
2018-05-14T04:45:43.490Z,33.75
2018-05-14T04:46:43.486Z,39.38
2018-05-14T04:47:43.488Z,39.38
2018-05-14T04:48:43.485Z,33.75
2018-05-14T04:49:43.480Z,39.38
2018-05-14T04:50:43.474Z,50.63
2018-05-14T04:51:43.475Z,61.88
2018-05-14T04:52:43.468Z,61.88
2018-05-14T04:53:43.470Z,50.63
2018-05-14T04:54:43.467Z,56.25
2018-05-14T04:55:43.464Z,61.88
2018-05-14T04:56:43.459Z,67.50
2018-05-14T04:57:43.453Z,73.13
2018-05-14T04:58:43.449Z,73.13
2018-05-14T04:59:43.447Z,67.50
2018-05-14T05:00:43.444Z,78.75
2018-05-14T05:01:43.445Z,90.00
2018-05-14T05:02:43.441Z,90.00
2018-05-14T05:03:43.434Z,95.63
2018-05-14T05:04:43.431Z,101.25
2018-05-14T05:05:43.434Z,90.00
2018-05-14T05:06:43.430Z,95.63
2018-05-14T05:07:43.426Z,90.00
2018-05-14T05:08:43.423Z,73.13
2018-05-14T05:09:43.416Z,78.75
2018-05-14T05:10:43.415Z,90.00
2018-05-14T05:11:43.411Z,90.00
2018-05-14T05:12:43.407Z,90.00
2018-05-14T05:13:43.408Z,101.25
2018-05-14T05:14:43.408Z,106.88
2018-05-14T05:15:43.403Z,112.50
2018-05-14T05:16:43.401Z,118.13
2018-05-14T05:17:43.393Z,112.50
2018-05-14T05:18:43.389Z,112.50
2018-05-14T05:19:43.392Z,140.63
2018-05-14T05:20:43.388Z,123.75
2018-05-14T05:21:43.382Z,106.88
2018-05-14T05:22:43.412Z,112.50
2018-05-14T05:23:43.375Z,118.13
2018-05-14T05:24:43.372Z,112.50
2018-05-14T05:25:43.374Z,106.88
2018-05-14T05:26:43.371Z,101.25
2018-05-14T05:27:43.368Z,95.63
2018-05-14T05:28:43.367Z,101.25
2018-05-14T05:29:43.359Z,78.75
2018-05-14T05:30:43.355Z,84.38
2018-05-14T05:31:43.354Z,101.25
2018-05-14T05:32:43.351Z,106.88
2018-05-14T05:33:43.353Z,106.88
2018-05-14T05:34:43.351Z,101.25
2018-05-14T05:35:43.343Z,78.75
2018-05-14T05:36:43.341Z,78.75
2018-05-14T05:37:43.409Z,90.00
2018-05-14T05:38:43.339Z,106.88
2018-05-14T05:39:43.337Z,106.88
2018-05-14T05:40:43.334Z,90.00
2018-05-14T05:41:43.327Z,73.13
2018-05-14T05:42:43.323Z,95.63
2018-05-14T05:43:43.326Z,95.63
2018-05-14T05:44:43.319Z,106.88
2018-05-14T05:45:43.322Z,135.00
2018-05-14T05:46:43.326Z,118.13
2018-05-14T05:47:43.316Z,123.75
2018-05-14T05:48:43.313Z,135.00
2018-05-14T05:49:43.306Z,163.13
2018-05-14T05:50:43.305Z,180.00
2018-05-14T05:51:43.305Z,168.75
2018-05-14T05:52:43.303Z,163.13
2018-05-14T05:53:43.296Z,146.25
2018-05-14T05:54:43.294Z,157.50
2018-05-14T05:55:43.292Z,191.25
2018-05-14T05:56:43.289Z,157.50
2018-05-14T05:57:43.291Z,135.00
2018-05-14T05:58:43.289Z,163.13
2018-05-14T05:59:43.287Z,151.88
2018-05-14T06:00:43.285Z,146.25
2018-05-14T06:01:43.278Z,129.38
2018-05-14T06:02:43.274Z,118.13
2018-05-14T06:03:43.274Z,112.50
2018-05-14T06:04:43.274Z,118.13
2018-05-14T06:05:43.273Z,101.25
2018-05-14T06:06:43.270Z,112.50
2018-05-14T06:07:43.263Z,101.25
2018-05-14T06:08:43.260Z,106.88
2018-05-14T06:09:43.263Z,106.88
2018-05-14T06:10:43.260Z,129.38
2018-05-14T06:11:43.258Z,135.00
2018-05-14T06:12:43.256Z,146.25
2018-05-14T06:13:43.251Z,146.25
2018-05-14T06:14:43.247Z,146.25
2018-05-14T06:15:43.244Z,146.25
2018-05-14T06:16:43.243Z,151.88
2018-05-14T06:17:43.245Z,163.13
2018-05-14T06:18:43.243Z,180.00
2018-05-14T06:19:43.239Z,180.00
2018-05-14T06:20:43.237Z,196.88
2018-05-14T06:21:43.231Z,196.88
2018-05-14T06:22:43.229Z,163.13
2018-05-14T06:23:43.230Z,163.13
2018-05-14T06:24:43.229Z,174.38
2018-05-14T06:25:43.224Z,185.63
2018-05-14T06:26:43.221Z,202.50
2018-05-14T06:27:43.263Z,191.25
2018-05-14T06:28:43.215Z,163.13
2018-05-14T06:29:43.224Z,163.13
2018-05-14T06:30:43.215Z,174.38
2018-05-14T06:31:43.219Z,163.13
2018-05-14T06:32:43.218Z,151.88
2018-05-14T06:33:43.206Z,208.13
2018-05-14T06:34:43.203Z,174.38
2018-05-14T06:35:43.232Z,146.25
2018-05-14T06:36:43.201Z,168.75
2018-05-14T06:37:43.203Z,180.00
2018-05-14T06:38:43.200Z,163.13
2018-05-14T06:39:43.197Z,168.75
2018-05-14T06:40:43.193Z,163.13
2018-05-14T06:41:43.195Z,174.38
2018-05-14T06:42:43.192Z,174.38
2018-05-14T06:43:43.192Z,196.88
2018-05-14T06:44:43.190Z,202.50
2018-05-14T06:45:43.185Z,230.63
2018-05-14T06:46:43.182Z,219.38
2018-05-14T06:47:43.180Z,253.13
2018-05-14T06:48:43.178Z,264.38
2018-05-14T06:49:43.211Z,230.63
2018-05-14T06:50:43.179Z,230.63
2018-05-14T06:51:43.177Z,247.50
2018-05-14T06:52:43.177Z,236.25
2018-05-14T06:53:43.170Z,236.25
2018-05-14T06:54:43.171Z,247.50
2018-05-14T06:55:43.172Z,264.38
2018-05-14T06:56:43.169Z,275.63
2018-05-14T06:57:43.163Z,292.50
2018-05-14T06:58:43.161Z,281.25
2018-05-14T06:59:43.160Z,258.75
2018-05-14T07:00:43.160Z,270.00
2018-05-14T07:01:43.321Z,337.50
2018-05-14T07:02:43.161Z,298.13
2018-05-14T07:03:43.158Z,258.75
2018-05-14T07:04:43.158Z,253.13
2018-05-14T07:05:43.152Z,241.88
2018-05-14T07:06:43.149Z,281.25
2018-05-14T07:07:43.149Z,303.75
2018-05-14T07:08:43.148Z,241.88
2018-05-14T07:09:43.151Z,270.00
2018-05-14T07:10:43.152Z,286.88
2018-05-14T07:11:43.143Z,292.50
2018-05-14T07:12:43.143Z,281.25
2018-05-14T07:13:43.146Z,253.13
2018-05-14T07:14:43.144Z,253.13
2018-05-14T07:15:43.143Z,253.13
2018-05-14T07:16:43.142Z,258.75
2018-05-14T07:17:43.138Z,247.50
2018-05-14T07:18:43.135Z,219.38
2018-05-14T07:19:43.135Z,219.38
2018-05-14T07:20:43.133Z,219.38
2018-05-14T07:21:43.138Z,236.25
2018-05-14T07:22:43.137Z,241.88
2018-05-14T07:23:43.136Z,247.50
2018-05-14T07:24:43.222Z,303.75
2018-05-14T07:25:43.130Z,410.63
2018-05-14T07:26:43.127Z,506.25
2018-05-14T07:27:43.132Z,832.50
2018-05-14T07:28:43.131Z,855.00
2018-05-14T07:29:43.126Z,1085.63
2018-05-14T07:30:43.125Z,1738.13
2018-05-14T07:31:43.124Z,1372.50
2018-05-14T07:32:43.124Z,1130.63
2018-05-14T07:33:43.130Z,1254.38
2018-05-14T07:34:43.128Z,1406.25
2018-05-14T07:35:43.128Z,725.63
2018-05-14T07:36:43.137Z,495.00
2018-05-14T07:37:43.127Z,388.13
2018-05-14T07:38:43.127Z,393.75
2018-05-14T07:39:43.128Z,444.38
2018-05-14T07:40:43.130Z,371.25
2018-05-14T07:41:43.136Z,388.13
2018-05-14T07:42:43.139Z,495.00
2018-05-14T07:43:43.136Z,793.13
2018-05-14T07:44:43.136Z,1029.38
2018-05-14T07:45:43.144Z,2356.88
2018-05-14T07:46:43.144Z,1597.50
2018-05-14T07:47:43.146Z,900.00
2018-05-14T07:48:43.148Z,860.63
2018-05-14T07:49:43.146Z,1282.50
2018-05-14T07:50:43.150Z,990.00
2018-05-14T07:51:43.151Z,669.38
2018-05-14T07:52:43.154Z,478.13
2018-05-14T07:53:43.161Z,624.38
2018-05-14T07:54:43.165Z,618.75
2018-05-14T07:55:43.166Z,590.63
2018-05-14T07:56:43.169Z,540.00
2018-05-14T07:57:43.169Z,838.13
2018-05-14T07:58:43.172Z,1001.25
2018-05-14T07:59:43.179Z,776.25
2018-05-14T08:00:43.181Z,804.38
2018-05-14T08:01:43.258Z,933.75
2018-05-14T08:02:43.184Z,832.50
2018-05-14T08:03:43.186Z,860.63
2018-05-14T08:04:43.189Z,1023.75
2018-05-14T08:05:43.408Z,1175.63
2018-05-14T08:06:43.199Z,950.63
2018-05-14T08:07:43.205Z,1220.63
2018-05-14T08:08:43.207Z,1068.75
2018-05-14T08:09:43.205Z,1783.13
2018-05-14T08:10:43.208Z,1068.75
2018-05-14T08:11:43.299Z,855.00
2018-05-14T08:12:43.215Z,1355.63
2018-05-14T08:13:43.222Z,1051.88
2018-05-14T08:14:43.224Z,1203.75
2018-05-14T08:15:43.225Z,1108.13
2018-05-14T08:16:43.227Z,1040.63
2018-05-14T08:17:43.237Z,1085.63
2018-05-14T08:18:43.241Z,1192.50
2018-05-14T08:19:43.242Z,2581.88
2018-05-14T08:20:43.246Z,3701.25
2018-05-14T08:21:43.245Z,4027.50
2018-05-14T08:22:43.251Z,3875.63
2018-05-14T08:23:43.251Z,3830.63
2018-05-14T08:24:43.255Z,3841.88
2018-05-14T08:25:43.266Z,3796.88
2018-05-14T08:26:43.269Z,3723.75
2018-05-14T08:27:43.274Z,3633.75
2018-05-14T08:28:43.280Z,3639.38
2018-05-14T08:29:43.283Z,3386.25
2018-05-14T08:30:43.288Z,3543.75
2018-05-14T08:31:43.299Z,1569.38
2018-05-14T08:32:43.318Z,3605.63
2018-05-14T08:33:43.309Z,1951.88
2018-05-14T08:34:43.318Z,3611.25
2018-05-14T08:35:43.329Z,3571.88
2018-05-14T08:36:43.334Z,1721.25
2018-05-14T08:37:43.348Z,1957.50
2018-05-14T08:38:43.356Z,1372.50
2018-05-14T08:39:43.365Z,1614.38
2018-05-14T08:40:43.374Z,3706.88
2018-05-14T08:41:43.377Z,3240.00
2018-05-14T08:42:43.388Z,3352.50
2018-05-14T08:43:43.398Z,2700.00
2018-05-14T08:44:43.407Z,1153.13
2018-05-14T08:45:43.416Z,1462.50
2018-05-14T08:46:43.427Z,1316.25
2018-05-14T08:47:43.430Z,1299.38
2018-05-14T08:48:43.440Z,1170.00
2018-05-14T08:49:43.453Z,1299.38
2018-05-14T08:50:43.462Z,1676.25
2018-05-14T08:51:43.472Z,1316.25
2018-05-14T08:52:43.480Z,1344.38
2018-05-14T08:53:43.485Z,2784.38
2018-05-14T08:54:43.579Z,2851.88
2018-05-14T08:55:43.501Z,3088.13
2018-05-14T08:56:43.511Z,3690.00
2018-05-14T08:57:43.587Z,2671.88
2018-05-14T08:58:43.531Z,1102.50
2018-05-14T08:59:43.541Z,1018.13
2018-05-14T09:00:43.565Z,1451.25
2018-05-14T09:01:43.551Z,3813.75
2018-05-14T09:02:43.560Z,4325.63
2018-05-14T09:03:43.572Z,3470.63
2018-05-14T09:04:43.583Z,4033.13
2018-05-14T09:05:43.587Z,2581.88
2018-05-14T09:06:43.594Z,2323.13
2018-05-14T09:07:43.606Z,3870.00
2018-05-14T09:08:43.634Z,1996.88
2018-05-14T09:09:43.631Z,3898.13
2018-05-14T09:10:43.640Z,1715.63
2018-05-14T09:11:43.652Z,3346.88
2018-05-14T09:12:43.662Z,2053.13
2018-05-14T09:13:43.669Z,1833.75
2018-05-14T09:14:43.680Z,3571.88
2018-05-14T09:15:43.691Z,3510.00
2018-05-14T09:16:43.706Z,1687.50
2018-05-14T09:17:43.719Z,2205.00
2018-05-14T09:18:43.732Z,3780.00
2018-05-14T09:19:43.796Z,3701.25
2018-05-14T09:20:43.750Z,3684.38
2018-05-14T09:21:43.769Z,3920.63
2018-05-14T09:22:43.782Z,3870.00
2018-05-14T09:23:43.792Z,3976.88
2018-05-14T09:24:43.804Z,3954.38
2018-05-14T09:25:43.813Z,3870.00
2018-05-14T09:26:43.825Z,3943.13
2018-05-14T09:27:43.838Z,4010.63
2018-05-14T09:28:43.853Z,3864.38
2018-05-14T09:29:43.873Z,4033.13
2018-05-14T09:30:43.886Z,3937.50
2018-05-14T09:31:43.902Z,4100.63
2018-05-14T09:32:43.917Z,4005.00
2018-05-14T09:33:43.928Z,3926.25
2018-05-14T09:34:43.943Z,3791.25
2018-05-14T09:35:43.963Z,3740.63
2018-05-14T09:36:44.027Z,3903.75
2018-05-14T09:37:43.991Z,3802.50
2018-05-14T09:38:44.007Z,3836.25
2018-05-14T09:39:44.024Z,3937.50
2018-05-14T09:40:44.040Z,3813.75
2018-05-14T09:41:44.064Z,3667.50
2018-05-14T09:42:44.078Z,3723.75
2018-05-14T09:43:44.094Z,3639.38
2018-05-14T09:44:44.114Z,3442.50
2018-05-14T09:45:44.125Z,3341.25
2018-05-14T09:46:44.141Z,3408.75
2018-05-14T09:47:44.158Z,3380.63
2018-05-14T09:48:44.176Z,3285.00
2018-05-14T09:49:44.199Z,3335.63
2018-05-14T09:50:44.218Z,3268.13
2018-05-14T09:51:44.227Z,3273.75
2018-05-14T09:52:44.245Z,3234.38
2018-05-14T09:53:44.267Z,3223.13
2018-05-14T09:54:44.284Z,3217.50
2018-05-14T09:55:44.304Z,3183.75
2018-05-14T09:56:44.320Z,3082.50
2018-05-14T09:57:44.334Z,3043.13
2018-05-14T09:58:44.350Z,2981.25
2018-05-14T09:59:44.369Z,2891.25
2018-05-14T10:00:44.386Z,2941.88
2018-05-14T10:01:44.410Z,2857.50
2018-05-14T10:02:44.426Z,2857.50
2018-05-14T10:03:44.445Z,2846.25
2018-05-14T10:04:44.674Z,2801.25
2018-05-14T10:05:44.475Z,2773.13
2018-05-14T10:06:44.492Z,2722.50
2018-05-14T10:07:44.516Z,2716.88
2018-05-14T10:08:44.532Z,2677.50
2018-05-14T10:09:44.545Z,2660.63
2018-05-14T10:10:44.566Z,2671.88
2018-05-14T10:11:44.579Z,2705.63
2018-05-14T10:12:44.597Z,2677.50
2018-05-14T10:13:44.618Z,2683.13
2018-05-14T10:14:44.634Z,2677.50
2018-05-14T10:15:44.651Z,2700.00
2018-05-14T10:16:44.677Z,2745.00
2018-05-14T10:17:44.681Z,3324.38
2018-05-14T10:18:44.799Z,4848.75
2018-05-14T10:19:44.713Z,5366.25
2018-05-14T10:20:44.736Z,5040.00
2018-05-14T10:21:44.753Z,4848.75
2018-05-14T10:22:44.768Z,4500.00
2018-05-14T10:23:44.781Z,4246.88
2018-05-14T10:24:44.900Z,4291.88
2018-05-14T10:25:44.819Z,4140.00
2018-05-14T10:26:44.835Z,4151.25
2018-05-14T10:27:44.850Z,4303.13
2018-05-14T10:28:44.866Z,4516.88
2018-05-14T10:29:44.883Z,4320.00
2018-05-14T10:30:44.894Z,4303.13
2018-05-14T10:31:44.910Z,4224.38
2018-05-14T10:32:44.931Z,4230.00
2018-05-14T10:33:44.948Z,4156.88
2018-05-14T10:34:44.962Z,4275.00
2018-05-14T10:35:44.980Z,4320.00
2018-05-14T10:36:44.996Z,4185.00
2018-05-14T10:37:45.012Z,4078.13
2018-05-14T10:38:45.027Z,4089.38
2018-05-14T10:39:45.044Z,4415.63
2018-05-14T10:40:45.150Z,4601.25
2018-05-14T10:41:45.071Z,4646.25
2018-05-14T10:42:45.088Z,4528.13
2018-05-14T10:43:45.105Z,4528.13
2018-05-14T10:44:45.118Z,4494.38
2018-05-14T10:45:45.138Z,4573.13
2018-05-14T10:46:45.187Z,5023.13
2018-05-14T10:47:45.169Z,4972.50
2018-05-14T10:48:45.185Z,4831.88
2018-05-14T10:49:45.196Z,4674.38
2018-05-14T10:50:45.210Z,4876.88
2018-05-14T10:51:45.227Z,4995.00
2018-05-14T10:52:45.321Z,4972.50
2018-05-14T10:53:45.264Z,4938.75
2018-05-14T10:54:45.279Z,4995.00
2018-05-14T10:55:45.289Z,5051.25
2018-05-14T10:56:45.304Z,5265.00
2018-05-14T10:57:45.325Z,5152.50
2018-05-14T10:58:45.389Z,4730.63
2018-05-14T10:59:45.353Z,4713.75
2018-05-14T11:00:45.370Z,4860.00
2018-05-14T11:01:45.379Z,5045.63
2018-05-14T11:02:45.394Z,5006.25
2018-05-14T11:03:45.409Z,4505.63
2018-05-14T11:04:45.425Z,4314.38
2018-05-14T11:05:45.447Z,4713.75
2018-05-14T11:06:45.462Z,4921.88
2018-05-14T11:07:45.475Z,4663.13
2018-05-14T11:08:45.491Z,4471.88
2018-05-14T11:09:45.503Z,5107.50
2018-05-14T11:10:45.515Z,5416.88
2018-05-14T11:11:45.536Z,5400.00
2018-05-14T11:12:45.549Z,5574.38
2018-05-14T11:13:45.559Z,5591.25
2018-05-14T11:14:45.601Z,5045.63
2018-05-14T11:15:45.585Z,4635.00
2018-05-14T11:16:45.606Z,4353.75
2018-05-14T11:17:45.625Z,2604.38
2018-05-14T11:18:45.748Z,1040.63
2018-05-14T11:19:45.655Z,798.75
2018-05-14T11:20:45.660Z,765.00
2018-05-14T11:21:45.670Z,770.63
2018-05-14T11:22:45.686Z,781.88
2018-05-14T11:23:45.765Z,776.25
2018-05-14T11:24:45.709Z,753.75
2018-05-14T11:25:45.723Z,748.13
2018-05-14T11:26:45.737Z,736.88
2018-05-14T11:27:45.797Z,731.25
2018-05-14T11:28:45.752Z,731.25
2018-05-14T11:29:45.767Z,720.00
2018-05-14T11:30:45.777Z,703.13
2018-05-14T11:31:45.787Z,697.50
2018-05-14T11:32:45.797Z,703.13
2018-05-14T11:33:45.801Z,697.50
2018-05-14T11:34:45.810Z,703.13
2018-05-14T11:35:45.819Z,708.75
2018-05-14T11:36:45.834Z,686.25
2018-05-14T11:37:45.840Z,658.13
2018-05-14T11:38:45.848Z,652.50
2018-05-14T11:39:45.854Z,646.88
2018-05-14T11:40:45.863Z,641.25
2018-05-14T11:41:45.865Z,635.63
2018-05-14T11:42:45.872Z,630.00
2018-05-14T11:43:45.889Z,613.13
2018-05-14T11:44:45.891Z,590.63
2018-05-14T11:45:45.895Z,585.00
2018-05-14T11:46:45.905Z,590.63
2018-05-14T11:47:45.913Z,596.25
2018-05-14T11:48:45.913Z,601.88
2018-05-14T11:49:45.925Z,601.88
2018-05-14T11:50:46.012Z,601.88
2018-05-14T11:51:45.938Z,590.63
2018-05-14T11:52:45.948Z,579.38
2018-05-14T11:53:45.945Z,573.75
2018-05-14T11:54:45.952Z,579.38
2018-05-14T11:55:45.957Z,568.13
2018-05-14T11:56:46.000Z,562.50
2018-05-14T11:57:45.974Z,551.25
2018-05-14T11:58:45.978Z,534.38
2018-05-14T11:59:45.979Z,523.13
2018-05-14T12:00:45.986Z,511.88
2018-05-14T12:01:45.996Z,506.25
2018-05-14T12:02:46.046Z,495.00
2018-05-14T12:03:46.008Z,478.13
2018-05-14T12:04:46.013Z,483.75
2018-05-14T12:05:46.013Z,495.00
2018-05-14T12:06:46.018Z,500.63
2018-05-14T12:07:46.026Z,500.63
2018-05-14T12:08:46.028Z,506.25
2018-05-14T12:09:46.038Z,500.63
2018-05-14T12:10:46.062Z,506.25
2018-05-14T12:11:46.052Z,500.63
2018-05-14T12:12:46.054Z,506.25
2018-05-14T12:13:46.054Z,500.63
2018-05-14T12:14:46.058Z,506.25
2018-05-14T12:15:46.069Z,506.25
2018-05-14T12:16:46.075Z,511.88
2018-05-14T12:17:46.073Z,511.88
2018-05-14T12:18:46.080Z,511.88
2018-05-14T12:19:46.083Z,517.50
2018-05-14T12:20:46.087Z,517.50
2018-05-14T12:21:46.097Z,523.13
2018-05-14T12:22:46.100Z,517.50
2018-05-14T12:23:46.105Z,517.50
2018-05-14T12:24:46.109Z,511.88
2018-05-14T12:25:46.143Z,517.50
2018-05-14T12:26:46.114Z,506.25
2018-05-14T12:27:46.119Z,511.88
2018-05-14T12:28:46.123Z,500.63
2018-05-14T12:29:46.137Z,500.63
2018-05-14T12:30:46.138Z,495.00
2018-05-14T12:31:46.137Z,483.75
2018-05-14T12:32:46.141Z,489.38
2018-05-14T12:33:46.150Z,495.00
2018-05-14T12:34:46.159Z,506.25
2018-05-14T12:35:46.159Z,483.75
2018-05-14T12:36:46.164Z,461.25
2018-05-14T12:37:46.168Z,433.13
2018-05-14T12:38:46.171Z,421.88
2018-05-14T12:39:46.172Z,416.25
2018-05-14T12:40:46.177Z,416.25